Station: NULLARBOR

  Atmospheric Gas Attenuation - ITU Rec 676-11   --------------- db/100km ---------------
Date Time Temp RH % AH g/m3 Dew Point Wind Direction Speed kph Gust kph Barometer mB Rainfall Since 9am 24GHz 47GHz 76GHz 122GHz 134GHz 241GHz
13 08:00 3.7 15 17 1027.1 0.2
13 07:50 3.4 15 17 1027.1 0.2
13 07:40 3.1 15 17 1027.2 0.2
13 07:30 2.7 100 5.83 2.7 15 17 1027 0.2 14.1 25.0 34.2 89.1 74.3 252.2
13 07:20 2.6 2.9 15 15 1027.1 0.2
13 07:10 2.5 2.8 15 15 1027.1 0.2
13 07:00 2.7 100 5.83 2.7 15 17 1027.2 0.2 14.1 25.0 34.2 89.1 74.3 252.2
13 06:50 2.7 3 15 15 1026.8 0.2
13 06:40 3.1 3.4 13 13 1026.9 0.2
13 06:30 3.3 100 6.07 3.3 15 17 1026.7 0.2 14.6 25.2 34.9 91.1 77.0 261.9
13 06:20 3.5 3.8 15 15 1026.9 0.2
13 06:10 3.8 4.1 15 15 1026.5 0.2
13 06:00 4.1 100 6.41 4.1 15 17 1026.6 0 15.3 25.6 36.0 94.0 80.9 275.7
13 05:50 4.5 4.8 15 17 1026.7 0
13 05:40 4.3 4.6 17 17 1026.5 0
13 05:30 4.4 100 6.53 4.4 15 17 1026.5 0 15.6 25.7 36.4 95.0 82.3 280.5
13 05:20 4.3 4.6 15 17 1026.3 0
13 05:10 4.5 4.8 15 17 1026.2 0
13 04:50 5.3 17 17 1026.2 0
13 04:40 5.3 5.6 15 17 1026.2 0
13 04:30 5.1 100 6.85 5.1 15 17 1026.3 0 16.2 26.0 37.4 97.7 86.0 293.6
13 04:20 5 5.3 15 17 1026.2 0
13 04:10 4.5 4.8 17 17 1026.1 0
13 04:00 4.4 100 6.53 4.4 15 17 1026.2 0 15.6 25.7 36.3 94.9 82.3 280.5
13 03:50 4.4 4.7 15 17 1026.1 0
13 03:40 4.5 4.8 15 15 1026.2 0
13 03:30 4.6 100 6.62 4.6 15 17 1026.4 0 15.7 25.8 36.6 95.7 83.3 284.2
13 03:20 4.5 4.8 15 17 1026.4 0
13 03:10 4.7 5 15 17 1026.4 0
13 03:00 4.9 100 6.76 4.9 17 19 1026.4 0 16.0 25.9 37.1 97.0 84.9 290.0
13 02:50 5 5.3 17 17 1026.6 0
13 02:40 5 5.1 17 17 1026.6 0
13 02:30 4.5 100 6.58 4.5 19 19 1026.6 0 15.7 25.8 36.5 95.4 82.9 282.6
13 02:20 4.2 4.3 17 17 1026.8 0
13 02:10 4.3 4.4 17 19 1026.8 0
13 02:00 3.8 100 6.28 3.8 15 19 1027 0 15.0 25.5 35.6 92.9 79.4 270.5
13 01:50 4.1 4.2 15 17 1027.1 0
13 01:40 4.2 4.3 17 17 1027.1 0
13 01:30 4.3 100 6.49 4.3 17 17 1027 0 15.5 25.7 36.3 94.7 81.9 279.0
13 01:20 4.5 4.6 17 17 1026.9 0
13 01:10 4.3 4.4 17 17 1026.9 0
13 01:00 4.5 100 6.58 4.5 13 15 1027.1 0 15.7 25.8 36.6 95.5 82.9 282.8
13 00:50 3.8 3.9 13 15 1027.2 0
13 00:40 4.5 4.6 11 11 1027.3 0
13 00:30 5.6 100 7.07 5.6 9 13 1027.4 0 16.7 26.3 38.1 99.7 88.6 302.8
13 00:20 4.5 4.6 9 9 1027.5 0
13 00:10 4.6 4.7 7 7 1027.5 0
13 00:00 4.4 100 6.53 4.4 7 9 1027.5 0 15.6 25.7 36.4 95.1 82.3 280.8
12 23:50 4.5 100 6.58 4.5 7 7 1027.5 0 15.7 25.8 36.6 95.5 82.9 282.9
12 23:40 4.9 100 6.76 4.9 0 0 1027.6 0 16.0 26.0 37.2 97.1 85.0 290.3
12 23:30 5 100 6.8 5 0 4 1027.6 0 16.1 26.0 37.3 97.4 85.5 291.9
12 23:20 5.7 100 7.12 5.7 0 0 1027.6 0 16.8 26.4 38.3 100.2 89.2 304.9
12 23:10 6.4 100 7.46 6.4 7 9 1027.6 0 17.5 26.7 39.4 103.1 93.2 319.0
12 23:00 6.3 100 7.41 6.3 9 11 1027.5 0 17.4 26.7 39.3 102.7 92.6 316.9
12 22:50 6.9 100 7.7 6.9 9 11 1027.5 0 18.0 27.0 40.2 105.2 95.9 328.7
12 22:40 7.1 100 7.8 7.1 9 9 1027.4 0 18.2 27.1 40.5 106.1 97.1 332.8
12 22:30 6.9 100 7.7 6.9 11 11 1027.3 0 18.0 27.0 40.2 105.2 95.9 328.7
12 22:20 6.7 100 7.6 6.7 9 9 1027.3 0 17.8 26.9 39.9 104.3 94.8 324.6
12 22:10 6.7 100 7.6 6.7 11 11 1027.3 0 17.8 26.9 39.9 104.3 94.8 324.6
12 22:00 6.9 100 7.7 6.9 9 9 1027.3 0 18.0 27.0 40.2 105.2 95.9 328.7
12 21:50 6.7 100 7.6 6.7 7 9 1027.3 0 17.8 26.9 39.9 104.3 94.8 324.6
12 21:40 6.4 100 7.46 6.4 6 6 1027.4 0 17.5 26.7 39.4 103.1 93.1 318.9
12 21:30 6.3 99 7.33 6.2 2 6 1027.5 0 17.2 26.5 38.9 101.8 91.4 312.9
12 21:20 6.7 99 7.53 6.6 4 6 1027.5 0 17.6 26.8 39.6 103.5 93.8 321.2
12 21:10 7 99 7.67 6.9 9 9 1027.5 0 17.9 26.9 40.0 104.7 95.4 326.8
12 21:00 7.3 99 7.83 7.2 9 9 1027.5 0 18.2 27.1 40.6 106.2 97.3 333.5
12 20:50 8.4 100 8.49 8.4 9 9 1027.5 0 19.6 27.9 42.8 112.3 105.2 361.5
12 20:40 8.3 100 8.43 8.3 11 11 1027.4 0 19.5 27.8 42.6 111.7 104.5 358.9
12 20:30 8.2 99 8.29 8.1 9 11 1027.3 0 19.2 27.6 42.1 110.2 102.6 352.3
12 20:20 8.1 99 8.24 8 9 11 1027.2 0 19.1 27.6 41.9 109.8 102.0 350.3
12 20:10 8 99 8.19 7.9 13 13 1027.1 0 19.0 27.5 41.7 109.3 101.5 348.2
12 20:00 8.3 99 8.35 8.2 13 13 1027.1 0 19.3 27.7 42.3 110.7 103.3 354.8
12 19:50 8.6 99 8.51 8.5 13 13 1027.1 0 19.6 27.9 42.8 112.2 105.2 361.4
12 19:40 9 99 8.73 8.9 11 13 1027 0 20.1 28.1 43.5 114.1 107.8 370.5
12 19:30 8.6 99 8.51 8.5 13 15 1026.9 0 19.6 27.9 42.8 112.1 105.2 361.4
12 19:20 8.7 99 8.56 8.6 13 13 1026.7 0 19.7 27.9 42.9 112.5 105.7 363.3
12 19:10 9 99 8.73 8.9 13 13 1026.7 0 20.1 28.1 43.5 114.1 107.8 370.4
12 19:00 9.3 99 8.9 9.2 11 11 1026.7 0 20.4 28.3 44.1 115.6 109.8 377.5
12 18:50 9.5 99 9.01 9.4 11 11 1026.6 0 20.7 28.4 44.4 116.6 111.0 382.0
12 18:40 9.7 98 9.04 9.4 11 11 1026.4 0 20.7 28.4 44.4 116.6 111.2 382.4
12 18:30 9.9 96 8.97 9.3 11 13 1026.4 0 20.6 28.2 44.0 115.5 109.9 378.0
12 18:20 10.3 94 9 9.4 13 13 1026.4 0 20.6 28.1 43.9 115.2 109.7 377.5
12 18:10 10.9 92 9.15 9.7 11 11 1026.3 0 20.9 28.2 44.2 116.1 111.0 382.0
12 18:00 11.5 90 9.3 9.9 11 13 1026.3 0 21.2 28.3 44.5 116.9 112.2 386.4
12 17:50 12 89 9.49 10.2 11 13 1026.3 0 21.6 28.4 45.1 118.3 114.2 393.3
12 17:40 12.3 87 9.45 10.2 17 19 1026.1 0 21.5 28.3 44.7 117.4 113.1 389.7
12 17:30 12.5 86 9.46 10.2 17 20 1026 0 21.5 28.2 44.6 117.2 113.0 389.2
12 17:20 12.8 84 9.41 10.2 17 19 1026 0 21.4 28.0 44.3 116.2 111.8 385.2
12 17:10 12.9 82 9.24 9.9 20 22 1026 0 21.0 27.7 43.5 114.1 109.3 376.5
12 17:00 13.4 80 9.3 10 20 24 1026 0 21.1 27.7 43.5 114.0 109.5 377.0
12 16:50 13.3 79 9.13 9.7 24 24 1025.8 0 20.7 27.4 42.8 112.3 107.2 369.3
12 16:40 13.8 78 9.29 10 17 20 1025.7 0 21.0 27.5 43.2 113.3 108.7 374.5
12 16:30 14.1 73 8.86 9.3 19 24 1025.6 0 20.1 26.7 41.3 108.2 102.5 352.7
12 16:20 13.9 74 8.87 9.3 20 24 1025.6 0 20.1 26.8 41.4 108.5 102.9 354.1
12 16:10 13.6 77 9.06 9.6 22 24 1025.6 0 20.6 27.2 42.3 111.0 105.9 364.4
12 16:00 13.5 77 9.01 9.6 22 28 1025.6 0 20.5 27.1 42.2 110.6 105.3 362.5
12 15:50 14.3 77 9.46 10.3 24 28 1025.6 0 21.4 27.6 43.6 114.5 110.3 380.2
12 15:40 14.9 72 9.18 9.9 17 19 1025.7 0 20.8 27.0 42.1 110.5 105.7 364.1
12 15:30 14.7 70 8.81 9.3 20 26 1025.8 0 20.0 26.4 40.7 106.8 101.1 347.8
12 15:20 14.8 68 8.61 9 22 24 1025.8 0 19.5 26.1 39.9 104.5 98.3 338.1

Last Refresh: 13-Jul-2020 08:09:34

Most of the information presented on this site is sourced from the Bureau of Meteorology.  Copyright in all material sourced from the Bureau of Meteorology resides with the Commonwealth of Australia.